createdAt,value
2022-09-14T00:00:16.843Z,17.49
2022-09-14T00:05:18.688Z,17.45
2022-09-14T00:10:20.262Z,17.42
2022-09-14T00:15:22.132Z,17.26
2022-09-14T00:20:23.732Z,17.24
2022-09-14T00:25:26.552Z,17.26
2022-09-14T00:30:28.640Z,17.14
2022-09-14T00:35:30.444Z,17.06
2022-09-14T00:40:32.459Z,17.04
2022-09-14T00:45:34.272Z,17.08
2022-09-14T00:50:36.588Z,17.02
2022-09-14T00:55:39.036Z,17.08
2022-09-14T01:00:40.982Z,17.10
2022-09-14T01:05:50.261Z,17.07
2022-09-14T01:17:30.558Z,17.10
2022-09-14T01:22:40.733Z,17.08
2022-09-14T01:27:45.093Z,17.07
2022-09-14T01:32:57.110Z,17.06
2022-09-14T01:38:10.413Z,17.06
2022-09-14T01:43:18.404Z,17.04
2022-09-14T01:48:27.078Z,17.00
2022-09-14T01:53:49.979Z,16.94
2022-09-14T01:59:20.799Z,16.93
2022-09-14T02:04:36.405Z,16.93
2022-09-14T02:09:39.341Z,16.93
2022-09-14T02:14:43.675Z,16.92
2022-09-14T02:19:53.198Z,16.92
2022-09-14T02:24:55.777Z,16.93
2022-09-14T02:29:58.467Z,16.94
2022-09-14T02:35:20.064Z,16.91
2022-09-14T02:40:37.967Z,16.88
2022-09-14T02:45:58.506Z,16.90
2022-09-14T02:51:28.142Z,16.89
2022-09-14T02:56:29.945Z,16.67
2022-09-14T03:01:31.807Z,16.69
2022-09-14T03:06:33.949Z,16.71
2022-09-14T03:11:36.069Z,16.73
2022-09-14T03:16:39.237Z,16.74
2022-09-14T03:21:41.031Z,16.76
2022-09-14T03:26:42.977Z,16.79
2022-09-14T03:31:44.812Z,16.78
2022-09-14T03:36:46.676Z,16.73
2022-09-14T03:41:48.286Z,16.72
2022-09-14T03:46:50.001Z,16.73
2022-09-14T03:51:52.873Z,16.74
2022-09-14T03:56:56.330Z,16.76
2022-09-14T04:01:58.391Z,16.75
2022-09-14T04:06:59.990Z,16.74
2022-09-14T04:12:01.982Z,16.72
2022-09-14T04:17:04.536Z,16.72
2022-09-14T04:22:06.449Z,16.75
2022-09-14T04:27:08.266Z,16.75
2022-09-14T04:32:10.070Z,16.77
2022-09-14T04:37:12.076Z,16.71
2022-09-14T04:42:13.677Z,16.69
2022-09-14T04:47:15.605Z,16.64
2022-09-14T04:52:18.235Z,16.56
2022-09-14T04:57:19.854Z,16.58
2022-09-14T05:02:21.811Z,16.60
2022-09-14T05:07:23.511Z,16.66
2022-09-14T05:12:25.351Z,16.67
2022-09-14T05:17:26.935Z,16.70
2022-09-14T05:22:28.546Z,16.73
2022-09-14T05:27:30.393Z,16.79
2022-09-14T05:32:32.176Z,16.87
2022-09-14T05:37:33.969Z,16.91
2022-09-14T05:42:36.409Z,16.99
2022-09-14T05:47:39.293Z,17.05
2022-09-14T05:52:41.469Z,17.10
2022-09-14T05:57:43.253Z,17.15
2022-09-14T06:02:49.611Z,17.19
2022-09-14T06:07:53.199Z,17.21
2022-09-14T06:12:55.596Z,17.21
2022-09-14T06:17:57.616Z,17.24
2022-09-14T06:22:59.493Z,17.33
2022-09-14T06:28:01.157Z,17.41
2022-09-14T06:33:04.856Z,17.52
2022-09-14T06:38:07.627Z,17.61
2022-09-14T06:43:09.726Z,17.68
2022-09-14T06:48:11.567Z,17.78
2022-09-14T06:53:13.210Z,17.82
2022-09-14T06:58:14.992Z,17.90
2022-09-14T07:03:16.807Z,18.00
2022-09-14T07:08:18.664Z,18.08
2022-09-14T07:13:20.601Z,18.13
2022-09-14T07:18:23.530Z,18.16
2022-09-14T07:23:25.136Z,18.18
2022-09-14T07:28:27.494Z,18.23
2022-09-14T07:33:29.970Z,18.28
2022-09-14T07:38:50.969Z,18.22
2022-09-14T07:43:56.649Z,18.18
2022-09-14T07:49:00.926Z,18.35
2022-09-14T07:54:03.693Z,18.39
2022-09-14T08:04:27.446Z,18.81
2022-09-14T08:09:29.350Z,18.97
2022-09-14T08:14:30.970Z,19.17
2022-09-14T08:19:32.566Z,19.38
2022-09-14T08:24:34.855Z,19.53
2022-09-14T08:29:36.468Z,19.62
2022-09-14T08:34:38.340Z,19.66
2022-09-14T08:39:39.916Z,19.51
2022-09-14T08:44:44.570Z,19.63
2022-09-14T08:49:48.065Z,19.71
2022-09-14T08:54:53.741Z,19.69
2022-09-14T09:00:00.914Z,19.76
2022-09-14T09:05:32.767Z,19.72
2022-09-14T09:10:38.586Z,19.95
2022-09-14T09:15:49.092Z,20.03
2022-09-14T09:20:54.907Z,19.91
2022-09-14T09:26:27.442Z,20.06
2022-09-14T09:31:36.424Z,20.31
2022-09-14T09:37:04.733Z,20.46
2022-09-14T09:42:13.049Z,20.56
2022-09-14T09:47:14.854Z,20.63
2022-09-14T09:52:17.567Z,20.74
2022-09-14T09:57:36.937Z,20.79
2022-09-14T10:02:39.732Z,20.89
2022-09-14T10:07:50.325Z,20.91
2022-09-14T10:12:55.256Z,20.82
2022-09-14T10:18:11.994Z,20.73
2022-09-14T10:23:19.528Z,20.97
2022-09-14T10:28:29.131Z,21.12
2022-09-14T10:33:31.024Z,21.19
2022-09-14T10:38:44.138Z,21.28
2022-09-14T10:43:52.256Z,21.29
2022-09-14T10:49:13.919Z,21.27
2022-09-14T10:54:33.788Z,21.19
2022-09-14T10:59:44.422Z,21.15
2022-09-14T11:05:19.334Z,20.95
2022-09-14T11:10:38.746Z,20.94
2022-09-14T11:16:04.956Z,20.92
2022-09-14T11:21:21.952Z,20.74
2022-09-14T11:26:31.490Z,20.62
2022-09-14T11:31:40.666Z,20.59
2022-09-14T11:36:54.597Z,20.68
2022-09-14T11:42:00.910Z,20.80
2022-09-14T11:47:05.257Z,20.84
2022-09-14T11:52:23.984Z,20.84
2022-09-14T11:57:33.639Z,20.96
2022-09-14T12:02:38.039Z,21.12
2022-09-14T12:07:39.959Z,21.17
2022-09-14T12:12:44.397Z,21.18
2022-09-14T12:17:46.121Z,21.45
2022-09-14T12:22:50.289Z,21.67
2022-09-14T12:27:52.336Z,21.84
2022-09-14T12:32:53.984Z,21.98
2022-09-14T12:37:55.595Z,22.06
2022-09-14T12:42:57.238Z,22.16
2022-09-14T12:47:58.904Z,22.32
2022-09-14T12:53:24.417Z,22.45
2022-09-14T12:58:42.131Z,22.68
2022-09-14T13:03:48.687Z,22.93
2022-09-14T13:08:55.345Z,23.05
2022-09-14T13:13:58.070Z,23.18
2022-09-14T13:19:02.574Z,23.23
2022-09-14T13:24:18.632Z,23.29
2022-09-14T13:29:21.076Z,23.37
2022-09-14T13:34:38.682Z,23.42
2022-09-14T13:39:41.976Z,23.54
2022-09-14T13:44:46.631Z,23.59
2022-09-14T13:49:50.734Z,23.66
2022-09-14T13:55:14.450Z,23.79
2022-09-14T14:00:22.110Z,23.78
2022-09-14T14:05:30.342Z,23.81
2022-09-14T14:10:36.455Z,23.83
2022-09-14T14:15:38.048Z,23.87
2022-09-14T14:20:40.173Z,23.91
2022-09-14T14:25:48.350Z,24.02
2022-09-14T14:30:50.815Z,24.14
2022-09-14T14:35:54.586Z,24.29
2022-09-14T14:40:58.142Z,24.31
2022-09-14T14:46:01.456Z,24.27
2022-09-14T14:51:03.586Z,24.29
2022-09-14T14:56:05.743Z,24.31
2022-09-14T15:01:08.678Z,24.43
2022-09-14T15:06:23.133Z,24.44
2022-09-14T15:11:24.875Z,24.44
2022-09-14T15:16:26.706Z,24.45
2022-09-14T15:21:28.654Z,24.46
2022-09-14T15:26:30.670Z,24.38
2022-09-14T15:31:36.230Z,24.33
2022-09-14T15:36:52.702Z,24.27
2022-09-14T15:41:55.308Z,24.25
2022-09-14T15:46:57.573Z,24.25
2022-09-14T15:51:59.383Z,24.26
2022-09-14T15:57:01.293Z,24.29
2022-09-14T16:02:03.943Z,24.28
2022-09-14T16:07:09.975Z,24.25
2022-09-14T16:12:13.360Z,24.27
2022-09-14T16:17:15.706Z,24.21
2022-09-14T16:22:17.695Z,24.17
2022-09-14T16:27:19.298Z,24.08
2022-09-14T16:32:22.178Z,24.00
2022-09-14T16:37:24.060Z,23.91
2022-09-14T16:42:25.830Z,23.68
2022-09-14T16:47:27.588Z,23.46
2022-09-14T16:52:29.977Z,23.32
2022-09-14T16:57:31.802Z,23.24
2022-09-14T17:02:33.668Z,23.16
2022-09-14T17:07:35.406Z,23.07
2022-09-14T17:12:37.293Z,22.99
2022-09-14T17:17:39.072Z,22.89
2022-09-14T17:22:40.694Z,22.77
2022-09-14T17:27:42.312Z,22.70
2022-09-14T17:32:43.913Z,22.63
2022-09-14T17:37:45.514Z,22.53
2022-09-14T17:42:47.283Z,22.48
2022-09-14T17:47:49.134Z,22.41
2022-09-14T17:52:51.385Z,22.36
2022-09-14T17:57:53.191Z,22.30
2022-09-14T18:02:55.103Z,22.27
2022-09-14T18:07:57.237Z,22.24
2022-09-14T18:12:59.032Z,22.19
2022-09-14T18:18:00.791Z,22.14
2022-09-14T18:23:02.914Z,22.10
2022-09-14T18:28:05.351Z,22.07
2022-09-14T18:33:06.962Z,22.04
2022-09-14T18:38:09.169Z,21.94
2022-09-14T18:43:11.189Z,21.87
2022-09-14T18:48:14.228Z,21.79
2022-09-14T18:53:16.056Z,21.79
2022-09-14T18:58:17.625Z,21.79
2022-09-14T19:03:19.194Z,21.75
2022-09-14T19:08:23.922Z,21.76
2022-09-14T19:13:25.677Z,21.72
2022-09-14T19:18:27.251Z,21.71
2022-09-14T19:23:28.823Z,21.70
2022-09-14T19:28:30.649Z,21.68
2022-09-14T19:33:32.832Z,21.70
2022-09-14T19:38:34.611Z,21.66
2022-09-14T19:43:36.578Z,21.65
2022-09-14T19:48:39.020Z,21.57
2022-09-14T19:53:41.404Z,21.48
2022-09-14T19:58:46.560Z,21.39
2022-09-14T20:03:49.811Z,21.27
2022-09-14T20:09:00.290Z,21.15
2022-09-14T20:14:04.770Z,20.96
2022-09-14T20:19:09.491Z,20.97
2022-09-14T20:24:18.672Z,20.97
2022-09-14T20:29:23.019Z,20.91
2022-09-14T20:34:25.216Z,20.94
2022-09-14T20:39:27.764Z,20.81
2022-09-14T20:44:29.382Z,20.82
2022-09-14T20:49:31.327Z,20.85
2022-09-14T20:54:33.102Z,20.83
2022-09-14T20:59:35.063Z,20.85
2022-09-14T21:04:36.750Z,20.86
2022-09-14T21:09:39.151Z,20.86
2022-09-14T21:14:42.413Z,20.84
2022-09-14T21:19:44.138Z,20.83
2022-09-14T21:24:45.801Z,20.81
2022-09-14T21:29:49.764Z,20.77
2022-09-14T21:34:51.342Z,20.75
2022-09-14T21:39:54.106Z,20.72
2022-09-14T21:44:55.718Z,20.72
2022-09-14T21:49:57.341Z,20.71
2022-09-14T21:54:58.981Z,20.72
2022-09-14T22:00:00.959Z,20.73
2022-09-14T22:05:03.853Z,20.71
2022-09-14T22:10:06.529Z,20.67
2022-09-14T22:15:09.191Z,20.63
2022-09-14T22:20:11.627Z,20.57
2022-09-14T22:25:13.445Z,20.50
2022-09-14T22:30:15.600Z,20.45
2022-09-14T22:35:17.235Z,20.45
2022-09-14T22:40:19.153Z,20.42
2022-09-14T22:45:20.970Z,20.39
2022-09-14T22:50:22.665Z,20.33
2022-09-14T22:55:25.564Z,20.25
2022-09-14T23:00:27.213Z,20.15
2022-09-14T23:05:29.041Z,20.09
2022-09-14T23:10:31.117Z,20.07
2022-09-14T23:15:37.528Z,20.03
2022-09-14T23:20:40.644Z,20.01
2022-09-14T23:25:42.474Z,19.95
2022-09-14T23:30:52.332Z,19.97
2022-09-14T23:35:54.446Z,19.97
2022-09-14T23:40:58.465Z,19.94
2022-09-14T23:46:00.249Z,19.94
2022-09-14T23:51:05.448Z,19.95
2022-09-14T23:56:07.993Z,19.97
